createdAt,value
2023-09-26T00:00:29.420Z,12.65
2023-09-26T00:01:33.837Z,12.62
2023-09-26T00:02:38.177Z,12.58
2023-09-26T00:03:42.615Z,12.56
2023-09-26T00:04:46.974Z,12.54
2023-09-26T00:05:51.089Z,12.55
2023-09-26T00:06:55.551Z,12.55
2023-09-26T00:07:59.880Z,12.55
2023-09-26T00:09:04.247Z,12.56
2023-09-26T00:10:08.600Z,12.58
2023-09-26T00:11:12.921Z,12.60
2023-09-26T00:12:17.266Z,12.63
2023-09-26T00:13:21.679Z,12.64
2023-09-26T00:14:26.016Z,12.65
2023-09-26T00:15:30.348Z,12.66
2023-09-26T00:16:34.790Z,12.67
2023-09-26T00:17:39.045Z,12.67
2023-09-26T00:18:43.344Z,12.66
2023-09-26T00:19:47.689Z,12.66
2023-09-26T00:20:52.048Z,12.67
2023-09-26T00:21:56.420Z,12.66
2023-09-26T00:23:00.723Z,12.65
2023-09-26T00:24:05.067Z,12.63
2023-09-26T00:25:09.467Z,12.62
2023-09-26T00:26:13.781Z,12.59
2023-09-26T00:27:18.146Z,12.58
2023-09-26T00:28:22.562Z,12.55
2023-09-26T00:29:26.874Z,12.53
2023-09-26T00:30:31.252Z,12.49
2023-09-26T00:31:35.581Z,12.45
2023-09-26T00:32:40.155Z,12.38
2023-09-26T00:33:44.346Z,12.32
2023-09-26T00:34:48.458Z,12.28
2023-09-26T00:35:52.924Z,12.26
2023-09-26T00:36:57.401Z,12.24
2023-09-26T00:38:01.713Z,12.23
2023-09-26T00:39:05.903Z,12.22
2023-09-26T00:40:10.251Z,12.20
2023-09-26T00:41:14.705Z,12.15
2023-09-26T00:42:18.995Z,12.11
2023-09-26T00:43:23.357Z,12.07
2023-09-26T00:44:27.676Z,12.01
2023-09-26T00:45:32.051Z,11.97
2023-09-26T00:46:36.581Z,11.93
2023-09-26T00:47:40.840Z,11.89
2023-09-26T00:48:45.183Z,11.86
2023-09-26T00:49:49.488Z,11.84
2023-09-26T00:50:53.906Z,11.82
2023-09-26T00:51:58.207Z,11.80
2023-09-26T00:53:02.511Z,11.81
2023-09-26T00:54:06.890Z,11.80
2023-09-26T00:55:11.277Z,11.81
2023-09-26T00:56:15.537Z,11.83
2023-09-26T00:57:19.882Z,11.86
2023-09-26T00:58:24.262Z,11.90
2023-09-26T00:59:28.561Z,11.93
2023-09-26T01:00:32.920Z,11.97
2023-09-26T01:01:37.340Z,12.01
2023-09-26T01:02:41.711Z,12.07
2023-09-26T01:03:45.855Z,12.10
2023-09-26T01:04:50.278Z,12.14
2023-09-26T01:05:54.592Z,12.18
2023-09-26T01:06:59.081Z,12.22
2023-09-26T01:08:03.328Z,12.25
2023-09-26T01:09:07.726Z,12.28
2023-09-26T01:10:14.983Z,12.32
2023-09-26T01:11:18.427Z,12.36
2023-09-26T01:12:22.771Z,12.39
2023-09-26T01:13:27.159Z,12.43
2023-09-26T01:14:31.519Z,12.46
2023-09-26T01:15:49.978Z,12.49
2023-09-26T01:16:53.336Z,12.53
2023-09-26T01:17:57.730Z,12.56
2023-09-26T01:19:02.056Z,12.58
2023-09-26T01:20:06.259Z,12.58
2023-09-26T01:21:10.633Z,12.59
2023-09-26T01:22:15.122Z,12.59
2023-09-26T01:23:19.366Z,12.61
2023-09-26T01:24:23.757Z,12.63
2023-09-26T01:25:28.275Z,12.66
2023-09-26T01:26:32.472Z,12.68
2023-09-26T01:27:36.808Z,12.70
2023-09-26T01:28:41.125Z,12.71
2023-09-26T01:29:45.461Z,12.72
2023-09-26T01:30:49.821Z,12.74
2023-09-26T01:31:54.230Z,12.73
2023-09-26T01:32:58.558Z,12.71
2023-09-26T01:34:02.951Z,12.70
2023-09-26T01:35:07.346Z,12.70
2023-09-26T01:36:11.632Z,12.70
2023-09-26T01:37:16.024Z,12.68
2023-09-26T01:38:20.357Z,12.66
2023-09-26T01:39:24.748Z,12.63
2023-09-26T01:40:29.171Z,12.61
2023-09-26T01:41:33.391Z,12.59
2023-09-26T01:42:37.777Z,12.56
2023-09-26T01:43:42.054Z,12.54
2023-09-26T01:44:46.409Z,12.52
2023-09-26T01:45:50.861Z,12.48
2023-09-26T01:46:55.203Z,12.45
2023-09-26T01:47:59.531Z,12.41
2023-09-26T01:49:03.882Z,12.37
2023-09-26T01:50:08.213Z,12.34
2023-09-26T01:51:12.554Z,12.30
2023-09-26T01:52:16.911Z,12.26
2023-09-26T01:53:21.235Z,12.21
2023-09-26T01:54:25.578Z,12.17
2023-09-26T01:55:30.009Z,12.14
2023-09-26T01:56:34.274Z,12.10
2023-09-26T01:57:38.611Z,12.07
2023-09-26T01:58:42.962Z,12.04
2023-09-26T01:59:47.310Z,12.01
2023-09-26T02:00:51.657Z,11.96
2023-09-26T02:01:56.035Z,11.93
2023-09-26T02:03:00.365Z,11.90
2023-09-26T02:04:04.662Z,11.89
2023-09-26T02:05:08.978Z,11.87
2023-09-26T02:06:13.338Z,11.86
2023-09-26T02:07:17.674Z,11.86
2023-09-26T02:08:21.994Z,11.86
2023-09-26T02:09:26.354Z,11.88
2023-09-26T02:10:30.758Z,11.88
2023-09-26T02:11:35.075Z,11.89
2023-09-26T02:12:39.465Z,11.91
2023-09-26T02:13:43.855Z,11.93
2023-09-26T02:14:48.061Z,11.97
2023-09-26T02:15:52.476Z,12.00
2023-09-26T02:16:57.008Z,12.04
2023-09-26T02:18:01.184Z,12.08
2023-09-26T02:19:05.557Z,12.11
2023-09-26T02:20:09.869Z,12.15
2023-09-26T02:21:14.194Z,12.17
2023-09-26T02:22:18.667Z,12.19
2023-09-26T02:23:22.962Z,12.21
2023-09-26T02:24:27.313Z,12.23
2023-09-26T02:25:31.676Z,12.25
2023-09-26T02:26:36.031Z,12.27
2023-09-26T02:27:40.386Z,12.30
2023-09-26T02:28:44.760Z,12.32
2023-09-26T02:29:49.092Z,12.34
2023-09-26T02:30:53.460Z,12.36
2023-09-26T02:31:57.805Z,12.38
2023-09-26T02:33:02.141Z,12.40
2023-09-26T02:34:06.440Z,12.41
2023-09-26T02:35:10.797Z,12.41
2023-09-26T02:36:15.149Z,12.43
2023-09-26T02:37:19.540Z,12.44
2023-09-26T02:38:23.815Z,12.44
2023-09-26T02:39:28.200Z,12.44
2023-09-26T02:40:32.593Z,12.46
2023-09-26T02:41:39.872Z,12.47
2023-09-26T02:42:43.342Z,12.49
2023-09-26T02:43:47.741Z,12.51
2023-09-26T02:45:06.114Z,12.53
2023-09-26T02:46:09.519Z,12.55
2023-09-26T02:47:13.674Z,12.56
2023-09-26T02:48:18.016Z,12.56
2023-09-26T02:49:22.390Z,12.57
2023-09-26T02:50:26.747Z,12.58
2023-09-26T02:51:31.149Z,12.59
2023-09-26T02:52:35.536Z,12.59
2023-09-26T02:53:39.856Z,12.60
2023-09-26T02:54:44.167Z,12.60
2023-09-26T02:55:48.507Z,12.60
2023-09-26T02:56:52.871Z,12.60
2023-09-26T02:57:57.280Z,12.60
2023-09-26T02:59:01.618Z,12.59
2023-09-26T03:00:05.962Z,12.57
2023-09-26T03:01:10.319Z,12.56
2023-09-26T03:02:14.657Z,12.54
2023-09-26T03:03:19.110Z,12.51
2023-09-26T03:04:23.354Z,12.48
2023-09-26T03:05:27.648Z,12.42
2023-09-26T03:06:31.944Z,12.38
2023-09-26T03:07:36.305Z,12.33
2023-09-26T03:08:40.627Z,12.30
2023-09-26T03:09:45.035Z,12.27
2023-09-26T03:10:49.369Z,12.22
2023-09-26T03:11:53.687Z,12.17
2023-09-26T03:12:58.085Z,12.11
2023-09-26T03:14:02.398Z,12.07
2023-09-26T03:15:06.813Z,12.00
2023-09-26T03:16:11.228Z,11.95
2023-09-26T03:17:15.593Z,11.93
2023-09-26T03:18:19.954Z,11.92
2023-09-26T03:19:27.269Z,11.92
2023-09-26T03:20:30.683Z,11.94
2023-09-26T03:21:35.047Z,11.96
2023-09-26T03:22:39.447Z,11.98
2023-09-26T03:23:57.845Z,12.02
2023-09-26T03:25:00.947Z,12.06
2023-09-26T03:26:05.214Z,12.08
2023-09-26T03:27:09.415Z,12.10
2023-09-26T03:28:13.826Z,12.09
2023-09-26T03:29:21.132Z,12.09
2023-09-26T03:30:24.602Z,12.08
2023-09-26T03:31:29.007Z,12.06
2023-09-26T03:32:33.324Z,12.05
2023-09-26T03:33:37.632Z,12.03
2023-09-26T03:34:41.964Z,12.02
2023-09-26T03:35:46.312Z,12.01
2023-09-26T03:36:50.702Z,11.99
2023-09-26T03:37:55.022Z,11.99
2023-09-26T03:38:59.368Z,11.98
2023-09-26T03:40:03.909Z,11.96
2023-09-26T03:41:08.182Z,11.94
2023-09-26T03:42:12.534Z,11.93
2023-09-26T03:43:16.986Z,11.93
2023-09-26T03:44:21.248Z,11.91
2023-09-26T03:45:25.584Z,11.89
2023-09-26T03:46:29.928Z,11.88
2023-09-26T03:47:34.374Z,11.86
2023-09-26T03:48:38.637Z,11.85
2023-09-26T03:49:43.013Z,11.83
2023-09-26T03:50:47.371Z,11.83
2023-09-26T03:51:51.821Z,11.83
2023-09-26T03:52:59.117Z,11.84
2023-09-26T03:54:02.564Z,11.84
2023-09-26T03:55:06.983Z,11.84
2023-09-26T03:56:11.283Z,11.83
2023-09-26T03:57:15.618Z,11.82
2023-09-26T03:58:20.005Z,11.79
2023-09-26T03:59:24.326Z,11.77
2023-09-26T04:00:28.689Z,11.76
2023-09-26T04:01:33.180Z,11.74
2023-09-26T04:02:51.494Z,11.73
2023-09-26T04:03:55.197Z,11.72
2023-09-26T04:04:59.003Z,11.71
2023-09-26T04:06:03.372Z,11.70
2023-09-26T04:07:07.695Z,11.69
2023-09-26T04:08:12.011Z,11.69
2023-09-26T04:09:16.383Z,11.67
2023-09-26T04:10:20.842Z,11.67
2023-09-26T04:11:25.133Z,11.65
2023-09-26T04:12:29.455Z,11.64
2023-09-26T04:13:33.821Z,11.63
2023-09-26T04:14:38.205Z,11.65
2023-09-26T04:15:42.576Z,11.64
2023-09-26T04:16:46.893Z,11.63
2023-09-26T04:17:51.277Z,11.60
2023-09-26T04:18:55.839Z,11.57
2023-09-26T04:20:00.058Z,11.55
2023-09-26T04:21:04.361Z,11.55
2023-09-26T04:22:08.817Z,11.53
2023-09-26T04:23:13.144Z,11.51
2023-09-26T04:24:17.441Z,11.51
2023-09-26T04:25:21.853Z,11.50
2023-09-26T04:26:26.201Z,11.49
2023-09-26T04:27:30.504Z,11.50
2023-09-26T04:28:34.790Z,11.49
2023-09-26T04:29:39.125Z,11.48
2023-09-26T04:30:43.457Z,11.48
2023-09-26T04:31:47.887Z,11.46
2023-09-26T04:32:52.257Z,11.46
2023-09-26T04:33:56.550Z,11.45
2023-09-26T04:35:00.892Z,11.46
2023-09-26T04:36:05.244Z,11.43
2023-09-26T04:37:09.763Z,11.38
2023-09-26T04:38:14.047Z,11.33
2023-09-26T04:39:18.496Z,11.28
2023-09-26T04:40:22.883Z,11.21
2023-09-26T04:41:27.147Z,11.15
2023-09-26T04:42:31.472Z,11.10
2023-09-26T04:43:35.919Z,11.06
2023-09-26T04:44:40.136Z,11.05
2023-09-26T04:45:44.438Z,11.06
2023-09-26T04:46:48.895Z,11.04
2023-09-26T04:47:53.136Z,11.02
2023-09-26T04:48:57.479Z,11.01
2023-09-26T04:50:01.744Z,11.02
2023-09-26T04:51:06.095Z,11.04
2023-09-26T04:52:10.498Z,11.08
2023-09-26T04:53:14.734Z,11.11
2023-09-26T04:54:19.117Z,11.17
2023-09-26T04:55:23.397Z,11.21
2023-09-26T04:56:27.830Z,11.25
2023-09-26T04:57:32.130Z,11.29
2023-09-26T04:58:36.517Z,11.32
2023-09-26T04:59:40.796Z,11.35
2023-09-26T05:00:48.129Z,11.37
2023-09-26T05:01:51.645Z,11.38
2023-09-26T05:02:56.040Z,11.37
2023-09-26T05:04:00.377Z,11.37
2023-09-26T05:05:04.611Z,11.36
2023-09-26T05:06:08.981Z,11.34
2023-09-26T05:07:13.399Z,11.32
2023-09-26T05:08:17.726Z,11.29
2023-09-26T05:09:22.044Z,11.28
2023-09-26T05:10:26.437Z,11.27
2023-09-26T05:11:30.737Z,11.25
2023-09-26T05:12:34.959Z,11.24
2023-09-26T05:13:39.423Z,11.24
2023-09-26T05:14:43.689Z,11.23
2023-09-26T05:15:48.029Z,11.23
2023-09-26T05:16:52.383Z,11.22
2023-09-26T05:17:56.731Z,11.21
2023-09-26T05:19:01.047Z,11.21
2023-09-26T05:20:05.333Z,11.21
2023-09-26T05:21:09.707Z,11.21
2023-09-26T05:22:14.066Z,11.21
2023-09-26T05:23:18.304Z,11.21
2023-09-26T05:24:22.624Z,11.22
2023-09-26T05:25:27.057Z,11.22
2023-09-26T05:26:31.319Z,11.23
2023-09-26T05:27:35.704Z,11.24
2023-09-26T05:28:40.191Z,11.24
2023-09-26T05:29:44.428Z,11.25
2023-09-26T05:30:48.885Z,11.26
2023-09-26T05:31:53.165Z,11.27
2023-09-26T05:32:58.112Z,11.27
2023-09-26T05:34:01.786Z,11.28
2023-09-26T05:35:06.109Z,11.28
2023-09-26T05:36:10.416Z,11.28
2023-09-26T05:37:14.821Z,11.28
2023-09-26T05:38:19.094Z,11.28
2023-09-26T05:39:23.394Z,11.28
2023-09-26T05:40:27.793Z,11.28
2023-09-26T05:41:32.045Z,11.28
2023-09-26T05:42:36.410Z,11.28
2023-09-26T05:43:40.774Z,11.28
2023-09-26T05:44:45.095Z,11.27
2023-09-26T05:45:49.457Z,11.25
2023-09-26T05:46:56.769Z,11.22
2023-09-26T05:48:00.141Z,11.19
2023-09-26T05:49:04.548Z,11.16
2023-09-26T05:50:08.845Z,11.15
2023-09-26T05:51:13.107Z,11.14
2023-09-26T05:52:17.539Z,11.14
2023-09-26T05:53:21.745Z,11.15
2023-09-26T05:54:31.768Z,11.15
2023-09-26T05:55:30.418Z,11.16
2023-09-26T05:56:34.721Z,11.17
2023-09-26T05:57:39.061Z,11.17
2023-09-26T05:58:43.383Z,11.17
2023-09-26T05:59:47.694Z,11.15
2023-09-26T06:00:52.019Z,11.15
2023-09-26T06:01:56.498Z,11.15
2023-09-26T06:03:00.754Z,11.16
2023-09-26T06:04:05.048Z,11.19
2023-09-26T06:05:09.390Z,11.21
2023-09-26T06:06:19.653Z,11.24
2023-09-26T06:07:22.617Z,11.27
2023-09-26T06:08:26.933Z,11.30
2023-09-26T06:09:31.330Z,11.32
2023-09-26T06:10:35.618Z,11.35
2023-09-26T06:11:39.907Z,11.38
2023-09-26T06:12:44.346Z,11.41
2023-09-26T06:13:48.680Z,11.43
2023-09-26T06:14:52.936Z,11.46
2023-09-26T06:15:57.324Z,11.49
2023-09-26T06:17:01.823Z,11.52
2023-09-26T06:18:06.081Z,11.56
2023-09-26T06:19:10.361Z,11.62
2023-09-26T06:20:14.639Z,11.67
2023-09-26T06:21:19.006Z,11.72
2023-09-26T06:22:23.350Z,11.77
2023-09-26T06:23:27.644Z,11.81
2023-09-26T06:24:32.002Z,11.86
2023-09-26T06:25:46.274Z,11.91
2023-09-26T06:26:40.676Z,11.96
2023-09-26T06:27:45.069Z,12.00
2023-09-26T06:28:49.399Z,12.05
2023-09-26T06:29:53.741Z,12.11
2023-09-26T06:30:58.058Z,12.17
2023-09-26T06:32:05.433Z,12.24
2023-09-26T06:33:08.905Z,12.29
2023-09-26T06:34:13.179Z,12.34
2023-09-26T06:35:17.568Z,12.39
2023-09-26T06:36:21.928Z,12.44
2023-09-26T06:37:26.260Z,12.48
2023-09-26T06:38:30.586Z,12.54
2023-09-26T06:39:34.941Z,12.58
2023-09-26T06:40:39.297Z,12.64
2023-09-26T06:41:43.639Z,12.69
2023-09-26T06:42:48.031Z,12.74
2023-09-26T06:43:52.660Z,12.81
2023-09-26T06:44:56.714Z,12.88
2023-09-26T06:46:01.101Z,12.93
2023-09-26T06:47:05.387Z,12.99
2023-09-26T06:48:09.802Z,13.05
2023-09-26T06:49:14.139Z,13.11
2023-09-26T06:50:18.473Z,13.16
2023-09-26T06:51:22.801Z,13.21
2023-09-26T06:52:27.221Z,13.26
2023-09-26T06:53:31.685Z,13.32
2023-09-26T06:54:35.998Z,13.38
2023-09-26T06:55:40.416Z,13.44
2023-09-26T06:56:44.725Z,13.50
2023-09-26T06:57:49.220Z,13.56
2023-09-26T06:58:53.841Z,13.62
2023-09-26T06:59:57.802Z,13.67
2023-09-26T07:01:02.238Z,13.73
2023-09-26T07:02:06.579Z,13.78
2023-09-26T07:03:10.987Z,13.83
2023-09-26T07:04:15.695Z,13.88
2023-09-26T07:05:19.786Z,13.94
2023-09-26T07:06:24.135Z,13.98
2023-09-26T07:07:28.485Z,14.03
2023-09-26T07:08:32.847Z,14.10
2023-09-26T07:09:37.233Z,14.14
2023-09-26T07:10:41.525Z,14.18
2023-09-26T07:11:46.004Z,14.24
2023-09-26T07:12:50.467Z,14.28
2023-09-26T07:13:54.846Z,14.32
2023-09-26T07:14:59.081Z,14.37
2023-09-26T07:16:03.633Z,14.44
2023-09-26T07:17:07.827Z,14.51
2023-09-26T07:18:15.297Z,14.58
2023-09-26T07:19:18.847Z,14.66
2023-09-26T07:20:23.161Z,14.74
2023-09-26T07:21:27.528Z,14.80
2023-09-26T07:22:31.939Z,14.86
2023-09-26T07:23:36.154Z,14.92
2023-09-26T07:24:49.721Z,14.99
2023-09-26T07:25:44.946Z,15.03
2023-09-26T07:26:50.887Z,15.07
2023-09-26T07:27:53.628Z,15.11
2023-09-26T07:28:58.028Z,15.17
2023-09-26T07:30:02.426Z,15.23
2023-09-26T07:31:06.885Z,15.26
2023-09-26T07:32:11.199Z,15.30
2023-09-26T07:33:15.624Z,15.34
2023-09-26T07:34:20.029Z,15.38
2023-09-26T07:35:24.488Z,15.43
2023-09-26T07:36:28.849Z,15.50
2023-09-26T07:37:33.325Z,15.55
2023-09-26T07:38:37.645Z,15.58
2023-09-26T07:39:42.189Z,15.60
2023-09-26T07:40:46.543Z,15.62
2023-09-26T07:42:04.892Z,15.64
2023-09-26T07:43:08.186Z,15.66
2023-09-26T07:44:12.450Z,15.71
2023-09-26T07:45:16.833Z,15.74
2023-09-26T07:46:21.429Z,15.76
2023-09-26T07:47:25.652Z,15.77
2023-09-26T07:48:30.027Z,15.79
2023-09-26T07:49:34.388Z,15.81
2023-09-26T07:50:38.813Z,15.82
2023-09-26T07:51:43.196Z,15.86
2023-09-26T07:52:47.544Z,15.87
2023-09-26T07:53:52.142Z,15.89
2023-09-26T07:54:56.352Z,15.90
2023-09-26T07:56:00.713Z,15.92
2023-09-26T07:57:08.108Z,15.98
2023-09-26T07:58:11.669Z,16.01
2023-09-26T07:59:16.043Z,16.03
2023-09-26T08:00:20.405Z,16.05
2023-09-26T08:01:24.943Z,16.07
2023-09-26T08:02:29.193Z,16.08
2023-09-26T08:03:33.617Z,16.14
2023-09-26T08:04:41.047Z,16.20
2023-09-26T08:05:44.523Z,16.24
2023-09-26T08:06:48.898Z,16.30
2023-09-26T08:07:53.248Z,16.35
2023-09-26T08:08:57.661Z,16.37
2023-09-26T08:10:02.216Z,16.40
2023-09-26T08:11:06.584Z,16.42
2023-09-26T08:12:10.996Z,16.44
2023-09-26T08:13:15.432Z,16.49
2023-09-26T08:14:25.806Z,16.54
2023-09-26T08:15:28.966Z,16.60
2023-09-26T08:16:33.399Z,16.64
2023-09-26T08:17:37.737Z,16.66
2023-09-26T08:18:42.131Z,16.68
2023-09-26T08:19:46.539Z,16.70
2023-09-26T08:20:50.987Z,16.73
2023-09-26T08:21:55.406Z,16.76
2023-09-26T08:22:59.806Z,16.77
2023-09-26T08:24:04.161Z,16.84
2023-09-26T08:25:08.581Z,16.87
2023-09-26T08:26:13.068Z,16.90
2023-09-26T08:27:17.354Z,16.92
2023-09-26T08:28:27.944Z,16.94
2023-09-26T08:29:30.818Z,16.98
2023-09-26T08:30:49.238Z,17.01
2023-09-26T08:31:52.519Z,17.05
2023-09-26T08:32:56.788Z,17.10
2023-09-26T08:34:15.344Z,17.17
2023-09-26T08:35:19.630Z,17.26
2023-09-26T08:36:23.059Z,17.36
2023-09-26T08:37:27.593Z,17.43
2023-09-26T08:38:31.899Z,17.47
2023-09-26T08:39:36.316Z,17.53
2023-09-26T08:40:40.884Z,17.59
2023-09-26T08:41:45.271Z,17.64
2023-09-26T08:42:49.729Z,17.67
2023-09-26T08:43:54.188Z,17.69
2023-09-26T08:44:58.588Z,17.71
2023-09-26T08:46:03.097Z,17.73
2023-09-26T08:47:07.636Z,17.77
2023-09-26T08:48:14.825Z,17.81
2023-09-26T08:49:32.482Z,17.87
2023-09-26T08:50:35.725Z,17.93
2023-09-26T08:51:40.119Z,17.95
2023-09-26T08:52:44.494Z,17.97
2023-09-26T08:54:03.020Z,17.98
2023-09-26T08:55:06.546Z,18.01
2023-09-26T08:56:10.863Z,18.06
2023-09-26T08:57:15.283Z,18.09
2023-09-26T08:58:19.745Z,18.13
2023-09-26T08:59:24.128Z,18.18
2023-09-26T09:00:28.562Z,18.22
2023-09-26T09:01:33.118Z,18.25
2023-09-26T09:02:37.551Z,18.27
2023-09-26T09:03:41.837Z,18.29
2023-09-26T09:04:46.420Z,18.33
2023-09-26T09:05:50.722Z,18.38
2023-09-26T09:06:55.266Z,18.42
2023-09-26T09:07:59.618Z,18.44
2023-09-26T09:09:04.042Z,18.47
2023-09-26T09:10:08.564Z,18.48
2023-09-26T09:11:12.868Z,18.51
2023-09-26T09:12:17.332Z,18.52
2023-09-26T09:13:21.761Z,18.54
2023-09-26T09:14:26.220Z,18.57
2023-09-26T09:15:30.791Z,18.59
2023-09-26T09:16:35.170Z,18.60
2023-09-26T09:17:39.498Z,18.62
2023-09-26T09:18:43.918Z,18.64
2023-09-26T09:19:48.441Z,18.66
2023-09-26T09:20:52.811Z,18.68
2023-09-26T09:21:57.294Z,18.70
2023-09-26T09:23:01.642Z,18.72
2023-09-26T09:24:06.120Z,18.75
2023-09-26T09:25:10.564Z,18.78
2023-09-26T09:26:14.940Z,18.80
2023-09-26T09:27:19.371Z,18.82
2023-09-26T09:28:23.901Z,18.86
2023-09-26T09:29:28.228Z,18.89
2023-09-26T09:30:32.712Z,18.92
2023-09-26T09:31:37.257Z,18.94
2023-09-26T09:32:41.644Z,18.96
2023-09-26T09:33:46.150Z,18.98
2023-09-26T09:34:50.589Z,19.02
2023-09-26T09:35:54.976Z,19.07
2023-09-26T09:36:59.468Z,19.11
2023-09-26T09:38:03.822Z,19.15
2023-09-26T09:39:08.269Z,19.18
2023-09-26T09:40:12.801Z,19.21
2023-09-26T09:41:17.146Z,19.24
2023-09-26T09:42:21.589Z,19.27
2023-09-26T09:43:26.074Z,19.28
2023-09-26T09:44:30.428Z,19.31
2023-09-26T09:45:34.852Z,19.35
2023-09-26T09:46:39.394Z,19.39
2023-09-26T09:47:43.780Z,19.43
2023-09-26T09:48:48.250Z,19.47
2023-09-26T09:49:52.594Z,19.51
2023-09-26T09:50:57.060Z,19.55
2023-09-26T09:52:01.575Z,19.58
2023-09-26T09:53:06.004Z,19.63
2023-09-26T09:54:10.581Z,19.63
2023-09-26T09:55:14.981Z,19.66
2023-09-26T09:56:19.558Z,19.71
2023-09-26T09:57:23.965Z,19.73
2023-09-26T09:58:28.506Z,19.75
2023-09-26T09:59:32.877Z,19.75
2023-09-26T10:00:37.263Z,19.75
2023-09-26T10:01:41.761Z,19.77
2023-09-26T10:02:46.165Z,19.81
2023-09-26T10:03:50.538Z,19.84
2023-09-26T10:04:54.953Z,19.81
2023-09-26T10:05:59.417Z,19.73
2023-09-26T10:07:03.928Z,19.76
2023-09-26T10:08:08.281Z,19.81
2023-09-26T10:09:12.714Z,19.85
2023-09-26T10:10:17.243Z,19.86
2023-09-26T10:11:35.617Z,19.89
2023-09-26T10:12:39.006Z,19.76
2023-09-26T10:13:43.425Z,19.70
2023-09-26T10:14:47.873Z,19.62
2023-09-26T10:15:52.410Z,19.62
2023-09-26T10:16:56.924Z,19.60
2023-09-26T10:18:01.230Z,19.64
2023-09-26T10:19:05.631Z,19.67
2023-09-26T10:20:39.784Z,19.67
2023-09-26T10:21:19.178Z,19.72
2023-09-26T10:22:23.746Z,19.74
2023-09-26T10:23:28.113Z,19.75
2023-09-26T10:24:32.524Z,19.79
2023-09-26T10:25:37.016Z,19.74
2023-09-26T10:26:41.469Z,19.76
2023-09-26T10:28:50.604Z,19.83
2023-09-26T10:29:54.814Z,19.88
2023-09-26T10:30:59.351Z,19.83
2023-09-26T10:32:04.757Z,19.87
2023-09-26T10:33:12.607Z,19.87
2023-09-26T10:34:13.514Z,19.88
2023-09-26T10:35:20.105Z,19.85
2023-09-26T10:36:22.308Z,19.87
2023-09-26T10:37:26.799Z,19.88
2023-09-26T10:38:31.260Z,19.90
2023-09-26T10:39:35.701Z,19.92
2023-09-26T10:40:40.221Z,19.91
2023-09-26T10:43:58.843Z,19.95
2023-09-26T10:44:58.042Z,19.90
2023-09-26T10:46:02.562Z,19.76
2023-09-26T10:47:07.110Z,19.75
2023-09-26T10:48:25.558Z,19.78
2023-09-26T10:49:28.975Z,19.82
2023-09-26T10:50:33.835Z,19.70
2023-09-26T10:51:37.861Z,19.68
2023-09-26T10:52:56.395Z,19.64
2023-09-26T10:53:59.895Z,19.65
2023-09-26T10:55:04.367Z,19.67
2023-09-26T10:56:08.698Z,19.77
2023-09-26T10:57:13.168Z,19.85
2023-09-26T10:58:17.668Z,19.77
2023-09-26T10:59:22.036Z,19.85
2023-09-26T11:00:26.511Z,19.78
2023-09-26T11:01:31.013Z,19.70
2023-09-26T11:02:35.636Z,19.59
2023-09-26T11:03:40.001Z,19.41
2023-09-26T11:05:49.248Z,19.33
2023-09-26T11:06:54.106Z,19.44
2023-09-26T11:09:15.195Z,19.63
2023-09-26T11:10:19.652Z,19.66
2023-09-26T11:11:24.033Z,19.74
2023-09-26T11:12:28.477Z,19.86
2023-09-26T11:13:33.164Z,19.97
2023-09-26T11:14:37.441Z,20.01
2023-09-26T11:15:41.934Z,19.82
2023-09-26T11:16:46.377Z,19.85
2023-09-26T11:17:56.979Z,19.94
2023-09-26T11:19:00.033Z,20.06
2023-09-26T11:20:04.421Z,20.15
2023-09-26T11:21:24.004Z,20.16
2023-09-26T11:22:13.317Z,20.25
2023-09-26T11:23:17.820Z,20.30
2023-09-26T11:24:22.246Z,20.32
2023-09-26T11:25:26.739Z,20.20
2023-09-26T11:26:31.188Z,20.09
2023-09-26T11:27:35.698Z,20.05
2023-09-26T11:28:40.186Z,19.99
2023-09-26T11:29:44.647Z,19.89
2023-09-26T11:31:03.147Z,19.98
2023-09-26T11:32:06.733Z,20.17
2023-09-26T11:33:11.072Z,20.14
2023-09-26T11:34:15.519Z,20.13
2023-09-26T11:35:19.978Z,20.33
2023-09-26T11:36:24.462Z,20.44
2023-09-26T11:37:28.988Z,20.50
2023-09-26T11:38:33.676Z,20.50
2023-09-26T11:39:43.908Z,20.57
2023-09-26T11:40:50.201Z,20.63
2023-09-26T11:41:53.735Z,20.66
2023-09-26T11:42:58.109Z,20.49
2023-09-26T11:44:02.675Z,20.41
2023-09-26T11:45:13.055Z,20.41
2023-09-26T11:46:16.248Z,20.36
2023-09-26T11:47:20.627Z,20.38
2023-09-26T11:48:25.093Z,20.42
2023-09-26T11:49:29.594Z,20.50
2023-09-26T11:50:33.979Z,20.14
2023-09-26T11:51:38.488Z,20.24
2023-09-26T11:52:46.001Z,20.37
2023-09-26T11:54:03.638Z,20.33
2023-09-26T11:55:06.990Z,19.87
2023-09-26T11:56:11.422Z,19.76
2023-09-26T11:57:15.870Z,19.62
2023-09-26T11:58:34.433Z,19.81
2023-09-26T11:59:37.650Z,20.05
2023-09-26T12:00:42.054Z,19.69
2023-09-26T12:01:46.660Z,19.42
2023-09-26T12:03:05.114Z,19.24
2023-09-26T12:04:08.481Z,19.40
2023-09-26T12:05:18.839Z,19.45
2023-09-26T12:06:22.003Z,19.58
2023-09-26T12:07:26.427Z,19.80
2023-09-26T12:08:30.885Z,19.92
2023-09-26T12:09:49.416Z,20.03
2023-09-26T12:10:52.798Z,19.59
2023-09-26T12:11:57.189Z,19.54
2023-09-26T12:13:01.647Z,19.79
2023-09-26T12:14:06.108Z,20.01
2023-09-26T12:15:10.516Z,20.18
2023-09-26T12:16:15.109Z,20.12
2023-09-26T12:17:19.569Z,20.17
2023-09-26T12:18:23.984Z,20.32
2023-09-26T12:19:28.441Z,20.44
2023-09-26T12:20:32.884Z,20.45
2023-09-26T12:21:51.423Z,20.43
2023-09-26T12:23:08.873Z,20.45
2023-09-26T12:24:26.152Z,20.45
2023-09-26T12:25:35.595Z,20.31
2023-09-26T12:26:38.668Z,20.30
2023-09-26T12:27:57.155Z,20.50
2023-09-26T12:29:00.428Z,20.65
2023-09-26T12:30:04.814Z,20.76
2023-09-26T12:31:09.293Z,20.66
2023-09-26T12:32:13.930Z,20.61
2023-09-26T12:33:18.325Z,20.61
2023-09-26T12:34:22.761Z,20.35
2023-09-26T12:35:27.196Z,20.33
2023-09-26T12:36:31.740Z,20.23
2023-09-26T12:39:09.726Z,19.95
2023-09-26T12:40:12.832Z,20.25
2023-09-26T12:41:17.310Z,19.86
2023-09-26T12:42:21.713Z,20.15
2023-09-26T12:43:26.175Z,20.38
2023-09-26T12:44:30.628Z,20.42
2023-09-26T12:45:35.120Z,20.08
2023-09-26T12:46:39.657Z,20.05
2023-09-26T12:47:44.067Z,20.32
2023-09-26T12:48:48.519Z,20.34
2023-09-26T12:49:54.057Z,20.23
2023-09-26T12:50:58.168Z,20.40
2023-09-26T12:52:02.657Z,20.60
2023-09-26T12:53:10.178Z,20.65
2023-09-26T12:54:13.739Z,20.74
2023-09-26T12:55:32.262Z,20.84
2023-09-26T12:56:35.643Z,20.82
2023-09-26T12:59:07.744Z,20.63
2023-09-26T13:00:26.097Z,20.84
2023-09-26T13:01:29.657Z,20.60
2023-09-26T13:02:33.984Z,20.36
2023-09-26T13:03:44.418Z,20.42
2023-09-26T13:04:47.595Z,20.24
2023-09-26T13:05:52.020Z,19.86
2023-09-26T13:06:56.464Z,19.43
2023-09-26T13:08:14.991Z,19.38
2023-09-26T13:09:18.611Z,19.36
2023-09-26T13:10:23.001Z,19.48
2023-09-26T13:11:27.513Z,19.51
2023-09-26T13:12:46.013Z,19.60
2023-09-26T13:13:49.564Z,19.37
2023-09-26T13:14:53.977Z,19.50
2023-09-26T13:15:58.426Z,19.63
2023-09-26T13:17:17.049Z,19.79
2023-09-26T13:18:34.533Z,19.96
2023-09-26T13:19:44.085Z,20.09
2023-09-26T13:20:47.179Z,20.14
2023-09-26T13:22:05.649Z,20.19
2023-09-26T13:23:15.069Z,20.07
2023-09-26T13:24:32.224Z,19.78
2023-09-26T13:25:35.513Z,19.86
2023-09-26T13:26:39.917Z,19.98
2023-09-26T13:27:44.340Z,20.01
2023-09-26T13:29:02.947Z,20.02
2023-09-26T13:30:06.400Z,20.08
2023-09-26T13:31:16.885Z,20.11
2023-09-26T13:32:20.066Z,20.10
2023-09-26T13:33:24.525Z,20.20
2023-09-26T13:34:31.897Z,20.29
2023-09-26T13:35:35.466Z,20.37
2023-09-26T13:36:39.925Z,20.36
2023-09-26T13:37:44.402Z,20.41
2023-09-26T13:38:48.904Z,20.45
2023-09-26T13:39:53.397Z,20.49
2023-09-26T13:41:03.978Z,20.50
2023-09-26T13:42:07.131Z,20.48
2023-09-26T13:43:12.573Z,20.51
2023-09-26T13:44:16.833Z,20.55
2023-09-26T13:45:35.192Z,20.54
2023-09-26T13:46:38.705Z,20.04
2023-09-26T13:47:49.150Z,19.86
2023-09-26T13:49:06.271Z,19.72
2023-09-26T13:50:23.599Z,19.63
2023-09-26T13:51:41.037Z,19.58
2023-09-26T13:52:44.498Z,19.45
2023-09-26T13:55:19.378Z,19.48
2023-09-26T13:56:22.963Z,19.46
2023-09-26T13:57:27.368Z,19.12
2023-09-26T13:58:31.848Z,19.07
2023-09-26T13:59:36.207Z,19.08
2023-09-26T14:00:54.767Z,19.13
2023-09-26T14:01:58.354Z,19.23
2023-09-26T14:03:02.699Z,19.29
2023-09-26T14:04:07.100Z,19.39
2023-09-26T14:05:25.684Z,19.46
2023-09-26T14:06:29.012Z,19.55
2023-09-26T14:07:39.330Z,19.60
2023-09-26T14:08:42.464Z,19.55